sensor_id;sensor_type;location;lat;lon;timestamp;P1;durP1;ratioP1;P2;durP2;ratioP2
30133;SDS011;16946;49.984;10.672;2023-02-16T00:00:28;143.97;;;47.73;;
30133;SDS011;16946;49.984;10.672;2023-02-16T00:00:59;201.38;;;56.10;;
30133;SDS011;16946;49.984;10.672;2023-02-16T00:01:32;147.35;;;50.28;;
30133;SDS011;16946;49.984;10.672;2023-02-16T00:02:04;155.63;;;49.58;;
30133;SDS011;16946;49.984;10.672;2023-02-16T00:02:34;139.47;;;47.13;;
30133;SDS011;16946;49.984;10.672;2023-02-16T00:03:07;151.90;;;49.33;;
30133;SDS011;16946;49.984;10.672;2023-02-16T00:03:41;139.63;;;45.50;;
30133;SDS011;16946;49.984;10.672;2023-02-16T00:04:14;181.60;;;52.00;;
30133;SDS011;16946;49.984;10.672;2023-02-16T00:04:58;153.27;;;50.05;;
30133;SDS011;16946;49.984;10.672;2023-02-16T00:05:30;158.53;;;49.90;;
30133;SDS011;16946;49.984;10.672;2023-02-16T00:06:03;207.82;;;53.40;;
30133;SDS011;16946;49.984;10.672;2023-02-16T00:06:34;189.73;;;53.97;;
30133;SDS011;16946;49.984;10.672;2023-02-16T00:07:05;147.13;;;47.93;;
30133;SDS011;16946;49.984;10.672;2023-02-16T00:07:35;173.33;;;53.80;;
30133;SDS011;16946;49.984;10.672;2023-02-16T00:08:06;166.10;;;50.70;;
30133;SDS011;16946;49.984;10.672;2023-02-16T00:08:36;163.03;;;49.90;;
30133;SDS011;16946;49.984;10.672;2023-02-16T00:09:07;140.87;;;50.80;;
30133;SDS011;16946;49.984;10.672;2023-02-16T00:09:37;159.73;;;51.33;;
30133;SDS011;16946;49.984;10.672;2023-02-16T00:10:08;199.20;;;55.50;;
30133;SDS011;16946;49.984;10.672;2023-02-16T00:10:41;149.98;;;49.83;;
30133;SDS011;16946;49.984;10.672;2023-02-16T00:11:32;200.82;;;50.05;;
30133;SDS011;16946;49.984;10.672;2023-02-16T00:12:22;123.03;;;48.45;;
30133;SDS011;16946;49.984;10.672;2023-02-16T00:13:23;110.22;;;45.90;;
30133;SDS011;16946;49.984;10.672;2023-02-16T00:14:15;179.23;;;49.35;;
30133;SDS011;16946;49.984;10.672;2023-02-16T00:14:47;165.02;;;52.03;;
30133;SDS011;16946;49.984;10.672;2023-02-16T00:15:17;171.23;;;50.97;;
30133;SDS011;16946;49.984;10.672;2023-02-16T00:15:49;207.00;;;55.08;;
30133;SDS011;16946;49.984;10.672;2023-02-16T00:16:20;244.50;;;58.33;;
30133;SDS011;16946;49.984;10.672;2023-02-16T00:16:53;166.85;;;51.40;;
30133;SDS011;16946;49.984;10.672;2023-02-16T00:17:25;213.43;;;56.28;;
30133;SDS011;16946;49.984;10.672;2023-02-16T00:17:55;161.43;;;52.50;;
30133;SDS011;16946;49.984;10.672;2023-02-16T00:18:29;168.70;;;56.80;;
30133;SDS011;16946;49.984;10.672;2023-02-16T00:18:59;192.53;;;51.17;;
30133;SDS011;16946;49.984;10.672;2023-02-16T00:19:35;236.50;;;54.95;;
30133;SDS011;16946;49.984;10.672;2023-02-16T00:20:16;144.35;;;49.90;;
30133;SDS011;16946;49.984;10.672;2023-02-16T00:20:47;306.58;;;65.47;;
30133;SDS011;16946;49.984;10.672;2023-02-16T00:21:18;229.82;;;57.55;;
30133;SDS011;16946;49.984;10.672;2023-02-16T00:21:50;177.82;;;52.20;;
30133;SDS011;16946;49.984;10.672;2023-02-16T00:22:22;140.35;;;48.17;;
30133;SDS011;16946;49.984;10.672;2023-02-16T00:22:53;214.13;;;59.23;;
30133;SDS011;16946;49.984;10.672;2023-02-16T00:23:23;127.57;;;46.97;;
30133;SDS011;16946;49.984;10.672;2023-02-16T00:23:53;111.20;;;45.43;;
30133;SDS011;16946;49.984;10.672;2023-02-16T00:24:25;140.73;;;47.90;;
30133;SDS011;16946;49.984;10.672;2023-02-16T00:24:57;114.28;;;45.42;;
30133;SDS011;16946;49.984;10.672;2023-02-16T00:25:28;232.27;;;56.63;;
30133;SDS011;16946;49.984;10.672;2023-02-16T00:25:58;197.63;;;56.83;;
30133;SDS011;16946;49.984;10.672;2023-02-16T00:26:29;181.70;;;54.80;;
30133;SDS011;16946;49.984;10.672;2023-02-16T00:27:08;172.68;;;52.35;;
30133;SDS011;16946;49.984;10.672;2023-02-16T00:27:42;153.73;;;47.92;;
30133;SDS011;16946;49.984;10.672;2023-02-16T00:28:13;238.17;;;54.77;;
30133;SDS011;16946;49.984;10.672;2023-02-16T00:28:53;224.35;;;52.28;;
30133;SDS011;16946;49.984;10.672;2023-02-16T00:29:33;152.63;;;47.28;;
30133;SDS011;16946;49.984;10.672;2023-02-16T00:30:15;186.50;;;52.75;;
30133;SDS011;16946;49.984;10.672;2023-02-16T00:30:48;181.80;;;52.92;;
30133;SDS011;16946;49.984;10.672;2023-02-16T00:31:20;150.60;;;47.93;;
30133;SDS011;16946;49.984;10.672;2023-02-16T00:31:53;155.60;;;50.45;;
30133;SDS011;16946;49.984;10.672;2023-02-16T00:32:25;151.15;;;51.00;;
30133;SDS011;16946;49.984;10.672;2023-02-16T00:32:55;132.30;;;48.47;;
30133;SDS011;16946;49.984;10.672;2023-02-16T00:33:26;148.47;;;49.00;;
30133;SDS011;16946;49.984;10.672;2023-02-16T00:33:57;143.37;;;49.80;;
30133;SDS011;16946;49.984;10.672;2023-02-16T00:34:39;134.52;;;50.53;;
30133;SDS011;16946;49.984;10.672;2023-02-16T00:35:14;132.32;;;49.70;;
30133;SDS011;16946;49.984;10.672;2023-02-16T00:35:48;147.20;;;46.95;;
30133;SDS011;16946;49.984;10.672;2023-02-16T00:36:19;121.30;;;46.40;;
30133;SDS011;16946;49.984;10.672;2023-02-16T00:36:50;98.00;;;45.03;;
30133;SDS011;16946;49.984;10.672;2023-02-16T00:37:20;108.23;;;46.17;;
30133;SDS011;16946;49.984;10.672;2023-02-16T00:37:51;132.10;;;49.70;;
30133;SDS011;16946;49.984;10.672;2023-02-16T00:38:22;114.57;;;50.47;;
30133;SDS011;16946;49.984;10.672;2023-02-16T00:38:52;131.60;;;49.23;;
30133;SDS011;16946;49.984;10.672;2023-02-16T00:39:23;108.50;;;44.27;;
30133;SDS011;16946;49.984;10.672;2023-02-16T00:39:54;101.43;;;45.50;;
30133;SDS011;16946;49.984;10.672;2023-02-16T00:40:25;104.13;;;47.13;;
30133;SDS011;16946;49.984;10.672;2023-02-16T00:40:55;134.67;;;48.87;;
30133;SDS011;16946;49.984;10.672;2023-02-16T00:41:26;132.47;;;49.90;;
30133;SDS011;16946;49.984;10.672;2023-02-16T00:42:19;116.95;;;45.63;;
30133;SDS011;16946;49.984;10.672;2023-02-16T00:42:52;112.28;;;43.90;;
30133;SDS011;16946;49.984;10.672;2023-02-16T00:43:25;157.23;;;49.70;;
30133;SDS011;16946;49.984;10.672;2023-02-16T00:43:58;174.55;;;50.33;;
30133;SDS011;16946;49.984;10.672;2023-02-16T00:44:35;172.10;;;50.33;;
30133;SDS011;16946;49.984;10.672;2023-02-16T00:45:17;99.55;;;43.53;;
30133;SDS011;16946;49.984;10.672;2023-02-16T00:45:49;188.48;;;55.45;;
30133;SDS011;16946;49.984;10.672;2023-02-16T00:46:21;133.95;;;43.67;;
30133;SDS011;16946;49.984;10.672;2023-02-16T00:46:51;158.67;;;48.47;;
30133;SDS011;16946;49.984;10.672;2023-02-16T00:47:24;123.07;;;45.37;;
30133;SDS011;16946;49.984;10.672;2023-02-16T00:48:10;124.93;;;46.10;;
30133;SDS011;16946;49.984;10.672;2023-02-16T00:48:41;181.80;;;52.13;;
30133;SDS011;16946;49.984;10.672;2023-02-16T00:49:12;171.53;;;47.57;;
30133;SDS011;16946;49.984;10.672;2023-02-16T00:49:44;149.43;;;46.75;;
30133;SDS011;16946;49.984;10.672;2023-02-16T00:50:17;162.07;;;45.33;;
30133;SDS011;16946;49.984;10.672;2023-02-16T00:50:52;235.45;;;52.25;;
30133;SDS011;16946;49.984;10.672;2023-02-16T00:51:22;173.53;;;48.53;;
30133;SDS011;16946;49.984;10.672;2023-02-16T00:51:53;138.90;;;47.07;;
30133;SDS011;16946;49.984;10.672;2023-02-16T00:52:37;167.70;;;51.33;;
30133;SDS011;16946;49.984;10.672;2023-02-16T00:53:08;163.63;;;44.65;;
30133;SDS011;16946;49.984;10.672;2023-02-16T00:53:40;275.17;;;53.53;;
30133;SDS011;16946;49.984;10.672;2023-02-16T00:54:11;341.37;;;58.00;;
30133;SDS011;16946;49.984;10.672;2023-02-16T00:54:42;248.98;;;54.60;;
30133;SDS011;16946;49.984;10.672;2023-02-16T00:55:19;175.40;;;49.77;;
30133;SDS011;16946;49.984;10.672;2023-02-16T00:55:52;231.20;;;52.15;;
30133;SDS011;16946;49.984;10.672;2023-02-16T00:56:22;177.70;;;46.77;;
30133;SDS011;16946;49.984;10.672;2023-02-16T00:56:53;167.37;;;46.87;;
30133;SDS011;16946;49.984;10.672;2023-02-16T00:57:23;191.40;;;49.67;;
30133;SDS011;16946;49.984;10.672;2023-02-16T00:58:02;193.88;;;50.53;;
30133;SDS011;16946;49.984;10.672;2023-02-16T00:58:37;147.77;;;48.42;;
30133;SDS011;16946;49.984;10.672;2023-02-16T00:59:08;110.43;;;40.90;;
30133;SDS011;16946;49.984;10.672;2023-02-16T00:59:47;163.43;;;50.03;;
30133;SDS011;16946;49.984;10.672;2023-02-16T01:00:55;131.65;;;46.47;;
30133;SDS011;16946;49.984;10.672;2023-02-16T01:01:30;159.75;;;48.20;;
30133;SDS011;16946;49.984;10.672;2023-02-16T01:02:02;165.85;;;50.60;;
30133;SDS011;16946;49.984;10.672;2023-02-16T01:02:32;130.43;;;45.00;;
30133;SDS011;16946;49.984;10.672;2023-02-16T01:03:08;155.83;;;45.10;;
30133;SDS011;16946;49.984;10.672;2023-02-16T01:03:43;129.05;;;42.55;;
30133;SDS011;16946;49.984;10.672;2023-02-16T01:04:17;143.30;;;45.23;;
30133;SDS011;16946;49.984;10.672;2023-02-16T01:04:51;147.85;;;45.38;;
30133;SDS011;16946;49.984;10.672;2023-02-16T01:05:22;201.50;;;49.87;;
30133;SDS011;16946;49.984;10.672;2023-02-16T01:05:52;171.73;;;52.22;;
30133;SDS011;16946;49.984;10.672;2023-02-16T01:06:43;187.30;;;49.72;;
30133;SDS011;16946;49.984;10.672;2023-02-16T01:07:32;122.55;;;42.00;;
30133;SDS011;16946;49.984;10.672;2023-02-16T01:08:22;134.57;;;44.50;;
30133;SDS011;16946;49.984;10.672;2023-02-16T01:09:12;213.93;;;54.58;;
30133;SDS011;16946;49.984;10.672;2023-02-16T01:10:03;133.40;;;44.38;;
30133;SDS011;16946;49.984;10.672;2023-02-16T01:10:53;168.57;;;49.53;;
30133;SDS011;16946;49.984;10.672;2023-02-16T01:11:41;142.73;;;46.65;;
30133;SDS011;16946;49.984;10.672;2023-02-16T01:12:15;174.53;;;50.50;;
30133;SDS011;16946;49.984;10.672;2023-02-16T01:12:47;191.02;;;55.00;;
30133;SDS011;16946;49.984;10.672;2023-02-16T01:13:18;210.50;;;57.80;;
30133;SDS011;16946;49.984;10.672;2023-02-16T01:13:49;125.40;;;47.13;;
30133;SDS011;16946;49.984;10.672;2023-02-16T01:14:20;126.10;;;45.53;;
30133;SDS011;16946;49.984;10.672;2023-02-16T01:14:52;154.00;;;48.23;;
30133;SDS011;16946;49.984;10.672;2023-02-16T01:15:24;171.07;;;50.22;;
30133;SDS011;16946;49.984;10.672;2023-02-16T01:15:55;175.10;;;54.55;;
30133;SDS011;16946;49.984;10.672;2023-02-16T01:16:37;128.10;;;45.47;;
30133;SDS011;16946;49.984;10.672;2023-02-16T01:17:09;160.82;;;47.25;;
30133;SDS011;16946;49.984;10.672;2023-02-16T01:17:40;155.77;;;46.08;;
30133;SDS011;16946;49.984;10.672;2023-02-16T01:18:14;215.97;;;54.10;;
30133;SDS011;16946;49.984;10.672;2023-02-16T01:18:46;109.38;;;44.80;;
30133;SDS011;16946;49.984;10.672;2023-02-16T01:19:16;106.63;;;41.97;;
30133;SDS011;16946;49.984;10.672;2023-02-16T01:19:47;162.63;;;46.87;;
30133;SDS011;16946;49.984;10.672;2023-02-16T01:20:19;128.40;;;46.60;;
30133;SDS011;16946;49.984;10.672;2023-02-16T01:20:51;142.40;;;47.15;;
30133;SDS011;16946;49.984;10.672;2023-02-16T01:21:21;144.60;;;47.47;;
30133;SDS011;16946;49.984;10.672;2023-02-16T01:21:52;138.90;;;47.50;;
30133;SDS011;16946;49.984;10.672;2023-02-16T01:22:22;152.20;;;49.57;;
30133;SDS011;16946;49.984;10.672;2023-02-16T01:22:53;181.07;;;55.50;;
30133;SDS011;16946;49.984;10.672;2023-02-16T01:23:23;154.80;;;50.30;;
30133;SDS011;16946;49.984;10.672;2023-02-16T01:23:54;126.47;;;46.13;;
30133;SDS011;16946;49.984;10.672;2023-02-16T01:24:24;200.40;;;52.90;;
30133;SDS011;16946;49.984;10.672;2023-02-16T01:24:55;273.03;;;58.80;;
30133;SDS011;16946;49.984;10.672;2023-02-16T01:25:25;181.50;;;50.07;;
30133;SDS011;16946;49.984;10.672;2023-02-16T01:25:56;281.57;;;64.43;;
30133;SDS011;16946;49.984;10.672;2023-02-16T01:26:27;147.43;;;50.37;;
30133;SDS011;16946;49.984;10.672;2023-02-16T01:26:58;133.40;;;43.40;;
30133;SDS011;16946;49.984;10.672;2023-02-16T01:27:29;142.33;;;47.20;;
30133;SDS011;16946;49.984;10.672;2023-02-16T01:28:00;162.60;;;47.58;;
30133;SDS011;16946;49.984;10.672;2023-02-16T01:28:32;190.97;;;47.83;;
30133;SDS011;16946;49.984;10.672;2023-02-16T01:29:05;184.52;;;49.22;;
30133;SDS011;16946;49.984;10.672;2023-02-16T01:29:35;145.18;;;46.10;;
30133;SDS011;16946;49.984;10.672;2023-02-16T01:30:07;148.03;;;45.97;;
30133;SDS011;16946;49.984;10.672;2023-02-16T01:30:45;165.60;;;49.42;;
30133;SDS011;16946;49.984;10.672;2023-02-16T01:31:16;157.60;;;52.33;;
30133;SDS011;16946;49.984;10.672;2023-02-16T01:31:47;135.83;;;47.83;;
30133;SDS011;16946;49.984;10.672;2023-02-16T01:32:17;231.50;;;52.40;;
30133;SDS011;16946;49.984;10.672;2023-02-16T01:32:48;238.03;;;57.17;;
30133;SDS011;16946;49.984;10.672;2023-02-16T01:33:22;255.15;;;58.83;;
30133;SDS011;16946;49.984;10.672;2023-02-16T01:33:52;220.67;;;55.97;;
30133;SDS011;16946;49.984;10.672;2023-02-16T01:34:23;221.53;;;55.50;;
30133;SDS011;16946;49.984;10.672;2023-02-16T01:34:54;258.05;;;59.33;;
30133;SDS011;16946;49.984;10.672;2023-02-16T01:35:28;194.97;;;50.40;;
30133;SDS011;16946;49.984;10.672;2023-02-16T01:36:02;270.85;;;62.55;;
30133;SDS011;16946;49.984;10.672;2023-02-16T01:36:37;317.90;;;62.50;;
30133;SDS011;16946;49.984;10.672;2023-02-16T01:37:13;188.65;;;51.88;;
30133;SDS011;16946;49.984;10.672;2023-02-16T01:37:44;183.55;;;52.38;;
30133;SDS011;16946;49.984;10.672;2023-02-16T01:38:20;166.10;;;51.73;;
30133;SDS011;16946;49.984;10.672;2023-02-16T01:38:53;236.80;;;64.32;;
30133;SDS011;16946;49.984;10.672;2023-02-16T01:39:23;226.93;;;59.00;;
30133;SDS011;16946;49.984;10.672;2023-02-16T01:39:54;256.97;;;68.70;;
30133;SDS011;16946;49.984;10.672;2023-02-16T01:41:07;138.48;;;47.47;;
30133;SDS011;16946;49.984;10.672;2023-02-16T01:42:50;106.80;;;44.88;;
30133;SDS011;16946;49.984;10.672;2023-02-16T01:43:48;112.20;;;44.00;;
30133;SDS011;16946;49.984;10.672;2023-02-16T01:45:22;180.43;;;49.00;;
30133;SDS011;16946;49.984;10.672;2023-02-16T01:45:24;221.38;;;53.35;;
30133;SDS011;16946;49.984;10.672;2023-02-16T01:46:02;201.98;;;53.70;;
30133;SDS011;16946;49.984;10.672;2023-02-16T01:46:57;172.15;;;50.80;;
30133;SDS011;16946;49.984;10.672;2023-02-16T01:47:50;141.15;;;46.92;;
30133;SDS011;16946;49.984;10.672;2023-02-16T01:48:25;196.75;;;53.90;;
30133;SDS011;16946;49.984;10.672;2023-02-16T01:48:58;194.45;;;54.35;;
30133;SDS011;16946;49.984;10.672;2023-02-16T01:49:28;164.33;;;54.27;;
30133;SDS011;16946;49.984;10.672;2023-02-16T01:50:00;164.30;;;49.77;;
30133;SDS011;16946;49.984;10.672;2023-02-16T01:51:05;105.82;;;43.35;;
30133;SDS011;16946;49.984;10.672;2023-02-16T01:53:05;184.57;;;51.85;;
30133;SDS011;16946;49.984;10.672;2023-02-16T01:53:51;179.52;;;49.17;;
30133;SDS011;16946;49.984;10.672;2023-02-16T01:54:42;183.10;;;50.42;;
30133;SDS011;16946;49.984;10.672;2023-02-16T01:55:28;120.40;;;44.05;;
30133;SDS011;16946;49.984;10.672;2023-02-16T01:56:05;163.77;;;47.40;;
30133;SDS011;16946;49.984;10.672;2023-02-16T01:56:45;135.25;;;47.78;;
30133;SDS011;16946;49.984;10.672;2023-02-16T01:58:25;138.05;;;46.00;;
30133;SDS011;16946;49.984;10.672;2023-02-16T01:58:41;139.15;;;46.38;;
30133;SDS011;16946;49.984;10.672;2023-02-16T01:59:27;137.77;;;45.40;;
30133;SDS011;16946;49.984;10.672;2023-02-16T02:00:06;164.55;;;48.38;;
30133;SDS011;16946;49.984;10.672;2023-02-16T02:01:30;219.80;;;56.10;;
30133;SDS011;16946;49.984;10.672;2023-02-16T02:02:11;138.52;;;47.35;;
30133;SDS011;16946;49.984;10.672;2023-02-16T02:02:49;206.38;;;52.90;;
30133;SDS011;16946;49.984;10.672;2023-02-16T02:03:23;178.80;;;50.80;;
30133;SDS011;16946;49.984;10.672;2023-02-16T02:04:20;137.70;;;47.03;;
30133;SDS011;16946;49.984;10.672;2023-02-16T02:06:07;189.65;;;51.60;;
30133;SDS011;16946;49.984;10.672;2023-02-16T02:06:40;226.43;;;51.80;;
30133;SDS011;16946;49.984;10.672;2023-02-16T02:07:14;235.03;;;53.10;;
30133;SDS011;16946;49.984;10.672;2023-02-16T02:07:59;196.88;;;53.80;;
30133;SDS011;16946;49.984;10.672;2023-02-16T02:08:35;197.50;;;54.97;;
30133;SDS011;16946;49.984;10.672;2023-02-16T02:09:16;179.98;;;55.95;;
30133;SDS011;16946;49.984;10.672;2023-02-16T02:09:55;156.68;;;46.55;;
30133;SDS011;16946;49.984;10.672;2023-02-16T02:11:25;147.68;;;46.67;;
30133;SDS011;16946;49.984;10.672;2023-02-16T02:12:54;291.77;;;67.95;;
30133;SDS011;16946;49.984;10.672;2023-02-16T02:13:57;197.77;;;52.47;;
30133;SDS011;16946;49.984;10.672;2023-02-16T02:14:36;202.07;;;54.08;;
30133;SDS011;16946;49.984;10.672;2023-02-16T02:15:08;124.85;;;44.13;;
30133;SDS011;16946;49.984;10.672;2023-02-16T02:15:40;165.23;;;50.70;;
30133;SDS011;16946;49.984;10.672;2023-02-16T02:16:11;216.30;;;54.53;;
30133;SDS011;16946;49.984;10.672;2023-02-16T02:16:54;137.88;;;46.80;;
30133;SDS011;16946;49.984;10.672;2023-02-16T02:17:27;179.77;;;53.15;;
30133;SDS011;16946;49.984;10.672;2023-02-16T02:17:58;168.67;;;46.00;;
30133;SDS011;16946;49.984;10.672;2023-02-16T02:18:29;285.65;;;54.30;;
30133;SDS011;16946;49.984;10.672;2023-02-16T02:18:59;213.07;;;57.00;;
30133;SDS011;16946;49.984;10.672;2023-02-16T02:19:31;186.00;;;53.67;;
30133;SDS011;16946;49.984;10.672;2023-02-16T02:22:12;219.35;;;53.25;;
30133;SDS011;16946;49.984;10.672;2023-02-16T02:23:20;199.80;;;48.20;;
30133;SDS011;16946;49.984;10.672;2023-02-16T02:26:32;155.40;;;46.33;;
30133;SDS011;16946;49.984;10.672;2023-02-16T02:26:56;134.88;;;44.50;;
30133;SDS011;16946;49.984;10.672;2023-02-16T02:27:36;149.45;;;45.65;;
30133;SDS011;16946;49.984;10.672;2023-02-16T02:29:26;134.07;;;41.95;;
30133;SDS011;16946;49.984;10.672;2023-02-16T02:30:28;150.20;;;46.40;;
30133;SDS011;16946;49.984;10.672;2023-02-16T02:31:14;173.75;;;49.63;;
30133;SDS011;16946;49.984;10.672;2023-02-16T02:32:04;200.73;;;53.05;;
30133;SDS011;16946;49.984;10.672;2023-02-16T02:34:20;145.52;;;46.25;;
30133;SDS011;16946;49.984;10.672;2023-02-16T02:35:14;136.38;;;45.08;;
30133;SDS011;16946;49.984;10.672;2023-02-16T02:37:29;186.38;;;55.88;;
30133;SDS011;16946;49.984;10.672;2023-02-16T02:39:34;143.93;;;44.75;;
30133;SDS011;16946;49.984;10.672;2023-02-16T02:41:24;152.45;;;46.03;;
30133;SDS011;16946;49.984;10.672;2023-02-16T02:42:38;131.85;;;44.45;;
30133;SDS011;16946;49.984;10.672;2023-02-16T02:43:42;194.07;;;51.10;;
30133;SDS011;16946;49.984;10.672;2023-02-16T02:44:20;182.13;;;47.80;;
30133;SDS011;16946;49.984;10.672;2023-02-16T02:44:53;210.23;;;50.80;;
30133;SDS011;16946;49.984;10.672;2023-02-16T02:45:34;221.25;;;53.03;;
30133;SDS011;16946;49.984;10.672;2023-02-16T02:46:10;193.50;;;54.50;;
30133;SDS011;16946;49.984;10.672;2023-02-16T02:46:46;180.25;;;50.42;;
30133;SDS011;16946;49.984;10.672;2023-02-16T02:47:17;167.35;;;48.47;;
30133;SDS011;16946;49.984;10.672;2023-02-16T02:47:48;219.17;;;53.33;;
30133;SDS011;16946;49.984;10.672;2023-02-16T02:48:18;271.33;;;57.43;;
30133;SDS011;16946;49.984;10.672;2023-02-16T02:48:49;226.23;;;55.27;;
30133;SDS011;16946;49.984;10.672;2023-02-16T02:49:20;199.02;;;59.25;;
30133;SDS011;16946;49.984;10.672;2023-02-16T02:49:51;219.67;;;55.77;;
30133;SDS011;16946;49.984;10.672;2023-02-16T02:51:35;195.60;;;52.70;;
30133;SDS011;16946;49.984;10.672;2023-02-16T02:52:09;209.23;;;57.75;;
30133;SDS011;16946;49.984;10.672;2023-02-16T02:52:39;219.37;;;56.37;;
30133;SDS011;16946;49.984;10.672;2023-02-16T02:53:11;236.87;;;57.30;;
30133;SDS011;16946;49.984;10.672;2023-02-16T02:53:46;219.40;;;56.05;;
30133;SDS011;16946;49.984;10.672;2023-02-16T02:54:41;186.90;;;53.05;;
30133;SDS011;16946;49.984;10.672;2023-02-16T02:55:32;214.70;;;56.85;;
30133;SDS011;16946;49.984;10.672;2023-02-16T02:56:24;203.77;;;53.28;;
30133;SDS011;16946;49.984;10.672;2023-02-16T02:57:15;207.27;;;54.88;;
30133;SDS011;16946;49.984;10.672;2023-02-16T02:58:10;222.13;;;55.40;;
30133;SDS011;16946;49.984;10.672;2023-02-16T02:59:03;229.27;;;60.80;;
30133;SDS011;16946;49.984;10.672;2023-02-16T03:00:00;157.18;;;49.97;;
30133;SDS011;16946;49.984;10.672;2023-02-16T03:00:51;170.95;;;47.00;;
30133;SDS011;16946;49.984;10.672;2023-02-16T03:01:22;185.45;;;53.95;;
30133;SDS011;16946;49.984;10.672;2023-02-16T03:01:55;146.18;;;49.17;;
30133;SDS011;16946;49.984;10.672;2023-02-16T03:02:29;135.40;;;48.40;;
30133;SDS011;16946;49.984;10.672;2023-02-16T03:03:04;157.48;;;52.50;;
30133;SDS011;16946;49.984;10.672;2023-02-16T03:03:41;157.73;;;51.58;;
30133;SDS011;16946;49.984;10.672;2023-02-16T03:04:17;172.68;;;49.60;;
30133;SDS011;16946;49.984;10.672;2023-02-16T03:04:52;198.23;;;51.72;;
30133;SDS011;16946;49.984;10.672;2023-02-16T03:05:26;127.63;;;47.67;;
30133;SDS011;16946;49.984;10.672;2023-02-16T03:06:01;156.63;;;50.55;;
30133;SDS011;16946;49.984;10.672;2023-02-16T03:06:42;192.93;;;52.67;;
30133;SDS011;16946;49.984;10.672;2023-02-16T03:07:16;191.98;;;53.83;;
30133;SDS011;16946;49.984;10.672;2023-02-16T03:07:47;186.27;;;54.17;;
30133;SDS011;16946;49.984;10.672;2023-02-16T03:08:23;177.88;;;52.08;;
30133;SDS011;16946;49.984;10.672;2023-02-16T03:09:03;189.88;;;55.88;;
30133;SDS011;16946;49.984;10.672;2023-02-16T03:09:37;176.65;;;52.40;;
30133;SDS011;16946;49.984;10.672;2023-02-16T03:10:08;171.63;;;55.87;;
30133;SDS011;16946;49.984;10.672;2023-02-16T03:11:08;176.25;;;54.47;;
30133;SDS011;16946;49.984;10.672;2023-02-16T03:12:01;145.40;;;47.15;;
30133;SDS011;16946;49.984;10.672;2023-02-16T03:12:52;140.77;;;47.70;;
30133;SDS011;16946;49.984;10.672;2023-02-16T03:13:28;155.45;;;48.67;;
30133;SDS011;16946;49.984;10.672;2023-02-16T03:14:04;153.18;;;50.05;;
30133;SDS011;16946;49.984;10.672;2023-02-16T03:14:39;156.77;;;52.85;;
30133;SDS011;16946;49.984;10.672;2023-02-16T03:15:17;198.88;;;59.42;;
30133;SDS011;16946;49.984;10.672;2023-02-16T03:15:49;185.63;;;59.03;;
30133;SDS011;16946;49.984;10.672;2023-02-16T03:16:26;160.90;;;52.00;;
30133;SDS011;16946;49.984;10.672;2023-02-16T03:17:04;156.57;;;51.25;;
30133;SDS011;16946;49.984;10.672;2023-02-16T03:17:57;151.88;;;46.88;;
30133;SDS011;16946;49.984;10.672;2023-02-16T03:18:50;111.63;;;43.25;;
30133;SDS011;16946;49.984;10.672;2023-02-16T03:19:40;133.07;;;47.05;;
30133;SDS011;16946;49.984;10.672;2023-02-16T03:20:31;106.97;;;41.30;;
30133;SDS011;16946;49.984;10.672;2023-02-16T03:21:20;115.50;;;43.03;;
30133;SDS011;16946;49.984;10.672;2023-02-16T03:22:09;112.07;;;44.40;;
30133;SDS011;16946;49.984;10.672;2023-02-16T03:22:59;109.00;;;43.55;;
30133;SDS011;16946;49.984;10.672;2023-02-16T03:23:50;98.07;;;43.15;;
30133;SDS011;16946;49.984;10.672;2023-02-16T03:24:42;110.20;;;44.60;;
30133;SDS011;16946;49.984;10.672;2023-02-16T03:25:32;94.40;;;41.47;;
30133;SDS011;16946;49.984;10.672;2023-02-16T03:26:23;83.65;;;39.08;;
30133;SDS011;16946;49.984;10.672;2023-02-16T03:27:15;97.78;;;41.55;;
30133;SDS011;16946;49.984;10.672;2023-02-16T03:28:08;93.22;;;40.83;;
30133;SDS011;16946;49.984;10.672;2023-02-16T03:28:59;89.30;;;37.85;;
30133;SDS011;16946;49.984;10.672;2023-02-16T03:30:07;84.10;;;38.20;;
30133;SDS011;16946;49.984;10.672;2023-02-16T03:30:41;84.55;;;39.20;;
30133;SDS011;16946;49.984;10.672;2023-02-16T03:31:13;85.75;;;40.33;;
30133;SDS011;16946;49.984;10.672;2023-02-16T03:31:54;74.07;;;37.42;;
30133;SDS011;16946;49.984;10.672;2023-02-16T03:32:26;82.20;;;40.10;;
30133;SDS011;16946;49.984;10.672;2023-02-16T03:32:57;66.47;;;36.75;;
30133;SDS011;16946;49.984;10.672;2023-02-16T03:33:27;82.10;;;39.43;;
30133;SDS011;16946;49.984;10.672;2023-02-16T03:33:58;71.95;;;39.10;;
30133;SDS011;16946;49.984;10.672;2023-02-16T03:34:29;74.53;;;38.97;;
30133;SDS011;16946;49.984;10.672;2023-02-16T03:35:01;66.85;;;36.40;;
30133;SDS011;16946;49.984;10.672;2023-02-16T03:35:32;70.87;;;36.47;;
30133;SDS011;16946;49.984;10.672;2023-02-16T03:36:04;100.57;;;43.25;;
30133;SDS011;16946;49.984;10.672;2023-02-16T03:36:37;73.53;;;39.50;;
30133;SDS011;16946;49.984;10.672;2023-02-16T03:37:10;87.75;;;41.92;;
30133;SDS011;16946;49.984;10.672;2023-02-16T03:37:41;93.18;;;41.10;;
30133;SDS011;16946;49.984;10.672;2023-02-16T03:38:13;82.85;;;38.30;;
30133;SDS011;16946;49.984;10.672;2023-02-16T03:38:44;82.87;;;39.80;;
30133;SDS011;16946;49.984;10.672;2023-02-16T03:39:15;105.17;;;42.77;;
30133;SDS011;16946;49.984;10.672;2023-02-16T03:39:47;100.90;;;43.08;;
30133;SDS011;16946;49.984;10.672;2023-02-16T03:40:37;100.05;;;40.10;;
30133;SDS011;16946;49.984;10.672;2023-02-16T03:41:09;78.38;;;38.08;;
30133;SDS011;16946;49.984;10.672;2023-02-16T03:41:41;79.03;;;38.00;;
30133;SDS011;16946;49.984;10.672;2023-02-16T03:42:15;68.78;;;34.60;;
30133;SDS011;16946;49.984;10.672;2023-02-16T03:42:49;74.37;;;37.10;;
30133;SDS011;16946;49.984;10.672;2023-02-16T03:43:23;95.07;;;39.50;;
30133;SDS011;16946;49.984;10.672;2023-02-16T03:43:55;78.25;;;35.83;;
30133;SDS011;16946;49.984;10.672;2023-02-16T03:44:25;71.53;;;35.77;;
30133;SDS011;16946;49.984;10.672;2023-02-16T03:44:56;94.73;;;40.10;;
30133;SDS011;16946;49.984;10.672;2023-02-16T03:45:27;86.17;;;38.83;;
30133;SDS011;16946;49.984;10.672;2023-02-16T03:45:58;95.90;;;41.05;;
30133;SDS011;16946;49.984;10.672;2023-02-16T03:46:28;64.40;;;36.03;;
30133;SDS011;16946;49.984;10.672;2023-02-16T03:46:59;60.05;;;33.45;;
30133;SDS011;16946;49.984;10.672;2023-02-16T03:47:30;90.43;;;42.03;;
30133;SDS011;16946;49.984;10.672;2023-02-16T03:48:00;67.17;;;37.10;;
30133;SDS011;16946;49.984;10.672;2023-02-16T03:48:32;73.07;;;37.67;;
30133;SDS011;16946;49.984;10.672;2023-02-16T03:49:02;56.77;;;33.70;;
30133;SDS011;16946;49.984;10.672;2023-02-16T03:49:33;66.53;;;35.07;;
30133;SDS011;16946;49.984;10.672;2023-02-16T03:50:03;68.40;;;37.23;;